sensor_id;sensor_type;location;lat;lon;timestamp;P1;durP1;ratioP1;P2;durP2;ratioP2
8488;SDS011;4281;45.772;12.852;2023-12-29T00:02:31;76.73;;;69.00;;
8488;SDS011;4281;45.772;12.852;2023-12-29T00:04:59;75.60;;;68.00;;
8488;SDS011;4281;45.772;12.852;2023-12-29T00:07:27;75.93;;;68.10;;
8488;SDS011;4281;45.772;12.852;2023-12-29T00:09:55;77.07;;;69.07;;
8488;SDS011;4281;45.772;12.852;2023-12-29T00:12:23;82.87;;;74.33;;
8488;SDS011;4281;45.772;12.852;2023-12-29T00:14:51;83.33;;;75.03;;
8488;SDS011;4281;45.772;12.852;2023-12-29T00:17:19;80.47;;;72.23;;
8488;SDS011;4281;45.772;12.852;2023-12-29T00:19:48;83.70;;;75.33;;
8488;SDS011;4281;45.772;12.852;2023-12-29T00:22:16;82.70;;;74.30;;
8488;SDS011;4281;45.772;12.852;2023-12-29T00:24:44;82.70;;;74.67;;
8488;SDS011;4281;45.772;12.852;2023-12-29T00:27:13;82.70;;;74.40;;
8488;SDS011;4281;45.772;12.852;2023-12-29T00:29:41;83.23;;;74.93;;
8488;SDS011;4281;45.772;12.852;2023-12-29T00:32:08;82.50;;;74.27;;
8488;SDS011;4281;45.772;12.852;2023-12-29T00:34:36;82.07;;;73.77;;
8488;SDS011;4281;45.772;12.852;2023-12-29T00:37:06;82.93;;;74.60;;
8488;SDS011;4281;45.772;12.852;2023-12-29T00:39:35;88.23;;;79.53;;
8488;SDS011;4281;45.772;12.852;2023-12-29T00:42:06;85.07;;;76.43;;
8488;SDS011;4281;45.772;12.852;2023-12-29T00:44:35;86.53;;;77.93;;
8488;SDS011;4281;45.772;12.852;2023-12-29T00:47:03;87.70;;;78.90;;
8488;SDS011;4281;45.772;12.852;2023-12-29T00:49:31;87.80;;;78.87;;
8488;SDS011;4281;45.772;12.852;2023-12-29T00:51:58;87.43;;;78.57;;
8488;SDS011;4281;45.772;12.852;2023-12-29T00:54:30;87.57;;;78.80;;
8488;SDS011;4281;45.772;12.852;2023-12-29T00:56:58;85.77;;;77.10;;
8488;SDS011;4281;45.772;12.852;2023-12-29T00:59:26;86.00;;;77.50;;
8488;SDS011;4281;45.772;12.852;2023-12-29T01:01:54;84.53;;;75.93;;
8488;SDS011;4281;45.772;12.852;2023-12-29T01:04:22;84.57;;;76.00;;
8488;SDS011;4281;45.772;12.852;2023-12-29T01:06:50;85.17;;;76.67;;
8488;SDS011;4281;45.772;12.852;2023-12-29T01:09:20;82.43;;;73.90;;
8488;SDS011;4281;45.772;12.852;2023-12-29T01:11:49;81.33;;;73.23;;
8488;SDS011;4281;45.772;12.852;2023-12-29T01:14:17;82.20;;;73.87;;
8488;SDS011;4281;45.772;12.852;2023-12-29T01:16:45;84.27;;;75.87;;
8488;SDS011;4281;45.772;12.852;2023-12-29T01:19:13;82.67;;;74.27;;
8488;SDS011;4281;45.772;12.852;2023-12-29T01:21:41;82.80;;;74.63;;
8488;SDS011;4281;45.772;12.852;2023-12-29T01:24:09;84.80;;;76.30;;
8488;SDS011;4281;45.772;12.852;2023-12-29T01:26:38;83.00;;;74.70;;
8488;SDS011;4281;45.772;12.852;2023-12-29T01:29:08;83.87;;;75.53;;
8488;SDS011;4281;45.772;12.852;2023-12-29T01:31:36;82.93;;;74.50;;
8488;SDS011;4281;45.772;12.852;2023-12-29T01:34:04;84.63;;;76.00;;
8488;SDS011;4281;45.772;12.852;2023-12-29T01:36:32;80.40;;;72.37;;
8488;SDS011;4281;45.772;12.852;2023-12-29T01:39:00;84.80;;;76.20;;
8488;SDS011;4281;45.772;12.852;2023-12-29T01:41:29;83.20;;;74.63;;
8488;SDS011;4281;45.772;12.852;2023-12-29T01:44:17;82.23;;;73.77;;
8488;SDS011;4281;45.772;12.852;2023-12-29T01:46:46;82.70;;;74.57;;
8488;SDS011;4281;45.772;12.852;2023-12-29T01:49:16;83.30;;;74.83;;
8488;SDS011;4281;45.772;12.852;2023-12-29T01:51:45;83.23;;;75.03;;
8488;SDS011;4281;45.772;12.852;2023-12-29T01:54:16;82.97;;;74.67;;
8488;SDS011;4281;45.772;12.852;2023-12-29T01:56:44;82.43;;;74.10;;
8488;SDS011;4281;45.772;12.852;2023-12-29T01:59:12;84.30;;;75.83;;
8488;SDS011;4281;45.772;12.852;2023-12-29T02:01:52;81.37;;;73.17;;
8488;SDS011;4281;45.772;12.852;2023-12-29T02:04:21;83.47;;;75.03;;
8488;SDS011;4281;45.772;12.852;2023-12-29T02:06:51;83.20;;;74.70;;
8488;SDS011;4281;45.772;12.852;2023-12-29T02:09:19;84.70;;;76.20;;
8488;SDS011;4281;45.772;12.852;2023-12-29T02:11:47;82.70;;;74.40;;
8488;SDS011;4281;45.772;12.852;2023-12-29T02:14:16;82.80;;;74.37;;
8488;SDS011;4281;45.772;12.852;2023-12-29T02:16:45;83.83;;;75.13;;
8488;SDS011;4281;45.772;12.852;2023-12-29T02:19:28;83.07;;;74.67;;
8488;SDS011;4281;45.772;12.852;2023-12-29T02:22:04;88.40;;;79.40;;
8488;SDS011;4281;45.772;12.852;2023-12-29T02:24:33;83.17;;;74.67;;
8488;SDS011;4281;45.772;12.852;2023-12-29T02:27:05;84.93;;;76.27;;
8488;SDS011;4281;45.772;12.852;2023-12-29T02:29:40;82.67;;;74.20;;
8488;SDS011;4281;45.772;12.852;2023-12-29T02:32:11;81.93;;;73.63;;
8488;SDS011;4281;45.772;12.852;2023-12-29T02:34:41;82.57;;;74.07;;
8488;SDS011;4281;45.772;12.852;2023-12-29T02:37:11;82.87;;;74.30;;
8488;SDS011;4281;45.772;12.852;2023-12-29T02:39:39;82.17;;;73.80;;
8488;SDS011;4281;45.772;12.852;2023-12-29T02:42:09;80.40;;;72.23;;
8488;SDS011;4281;45.772;12.852;2023-12-29T02:44:37;81.37;;;73.33;;
8488;SDS011;4281;45.772;12.852;2023-12-29T02:47:05;77.70;;;70.07;;
8488;SDS011;4281;45.772;12.852;2023-12-29T02:49:33;74.20;;;66.80;;
8488;SDS011;4281;45.772;12.852;2023-12-29T02:52:01;72.87;;;65.77;;
8488;SDS011;4281;45.772;12.852;2023-12-29T02:54:29;67.83;;;61.03;;
8488;SDS011;4281;45.772;12.852;2023-12-29T02:56:57;68.60;;;61.83;;
8488;SDS011;4281;45.772;12.852;2023-12-29T02:59:26;66.83;;;60.63;;
8488;SDS011;4281;45.772;12.852;2023-12-29T03:01:54;64.23;;;58.13;;
8488;SDS011;4281;45.772;12.852;2023-12-29T03:04:22;64.60;;;58.50;;
8488;SDS011;4281;45.772;12.852;2023-12-29T03:06:50;63.80;;;57.83;;
8488;SDS011;4281;45.772;12.852;2023-12-29T03:09:18;60.27;;;54.67;;
8488;SDS011;4281;45.772;12.852;2023-12-29T03:11:46;62.13;;;56.43;;
8488;SDS011;4281;45.772;12.852;2023-12-29T03:14:14;58.23;;;52.93;;
8488;SDS011;4281;45.772;12.852;2023-12-29T03:16:43;59.60;;;54.13;;
8488;SDS011;4281;45.772;12.852;2023-12-29T03:19:11;58.40;;;53.13;;
8488;SDS011;4281;45.772;12.852;2023-12-29T03:21:39;60.83;;;55.27;;
8488;SDS011;4281;45.772;12.852;2023-12-29T03:24:08;59.80;;;54.43;;
8488;SDS011;4281;45.772;12.852;2023-12-29T03:26:35;60.23;;;54.73;;
8488;SDS011;4281;45.772;12.852;2023-12-29T03:29:04;58.43;;;53.03;;
8488;SDS011;4281;45.772;12.852;2023-12-29T03:31:32;54.57;;;49.50;;
8488;SDS011;4281;45.772;12.852;2023-12-29T03:34:01;55.50;;;50.33;;
8488;SDS011;4281;45.772;12.852;2023-12-29T03:36:29;53.13;;;48.17;;
8488;SDS011;4281;45.772;12.852;2023-12-29T03:38:57;54.53;;;49.43;;
8488;SDS011;4281;45.772;12.852;2023-12-29T03:41:25;51.47;;;46.77;;
8488;SDS011;4281;45.772;12.852;2023-12-29T03:43:53;50.00;;;45.30;;
8488;SDS011;4281;45.772;12.852;2023-12-29T03:46:22;52.87;;;47.97;;
8488;SDS011;4281;45.772;12.852;2023-12-29T03:48:50;48.20;;;43.80;;
8488;SDS011;4281;45.772;12.852;2023-12-29T03:51:20;48.80;;;44.20;;
8488;SDS011;4281;45.772;12.852;2023-12-29T03:53:48;49.43;;;44.87;;
8488;SDS011;4281;45.772;12.852;2023-12-29T03:56:17;48.17;;;43.73;;
8488;SDS011;4281;45.772;12.852;2023-12-29T03:58:45;46.83;;;42.53;;
8488;SDS011;4281;45.772;12.852;2023-12-29T04:01:14;44.93;;;40.73;;
8488;SDS011;4281;45.772;12.852;2023-12-29T04:03:43;49.53;;;44.90;;
8488;SDS011;4281;45.772;12.852;2023-12-29T04:06:11;52.73;;;47.83;;
8488;SDS011;4281;45.772;12.852;2023-12-29T04:08:41;51.20;;;46.40;;
8488;SDS011;4281;45.772;12.852;2023-12-29T04:11:09;52.37;;;47.47;;
8488;SDS011;4281;45.772;12.852;2023-12-29T04:13:38;47.13;;;42.83;;
8488;SDS011;4281;45.772;12.852;2023-12-29T04:16:06;49.00;;;44.33;;
8488;SDS011;4281;45.772;12.852;2023-12-29T04:18:34;50.73;;;45.73;;
8488;SDS011;4281;45.772;12.852;2023-12-29T04:21:02;51.03;;;46.10;;
8488;SDS011;4281;45.772;12.852;2023-12-29T04:23:30;49.17;;;44.27;;
8488;SDS011;4281;45.772;12.852;2023-12-29T04:26:00;46.53;;;42.13;;
8488;SDS011;4281;45.772;12.852;2023-12-29T04:28:28;47.27;;;42.77;;
8488;SDS011;4281;45.772;12.852;2023-12-29T04:30:55;46.63;;;42.10;;
8488;SDS011;4281;45.772;12.852;2023-12-29T04:33:23;45.43;;;40.97;;
8488;SDS011;4281;45.772;12.852;2023-12-29T04:35:51;46.27;;;41.77;;
8488;SDS011;4281;45.772;12.852;2023-12-29T04:38:19;45.30;;;40.90;;
8488;SDS011;4281;45.772;12.852;2023-12-29T04:40:47;45.93;;;41.33;;
8488;SDS011;4281;45.772;12.852;2023-12-29T04:43:16;45.40;;;40.93;;
8488;SDS011;4281;45.772;12.852;2023-12-29T04:45:44;46.47;;;41.97;;
8488;SDS011;4281;45.772;12.852;2023-12-29T04:48:12;45.70;;;41.20;;
8488;SDS011;4281;45.772;12.852;2023-12-29T04:50:40;44.47;;;40.03;;
8488;SDS011;4281;45.772;12.852;2023-12-29T04:53:08;47.03;;;42.40;;
8488;SDS011;4281;45.772;12.852;2023-12-29T04:55:36;47.37;;;42.57;;
8488;SDS011;4281;45.772;12.852;2023-12-29T04:58:04;48.10;;;43.20;;
8488;SDS011;4281;45.772;12.852;2023-12-29T05:00:34;48.97;;;43.80;;
8488;SDS011;4281;45.772;12.852;2023-12-29T05:03:02;46.80;;;40.47;;
8488;SDS011;4281;45.772;12.852;2023-12-29T05:05:30;46.03;;;40.70;;
8488;SDS011;4281;45.772;12.852;2023-12-29T05:07:57;45.07;;;40.03;;
8488;SDS011;4281;45.772;12.852;2023-12-29T05:10:26;44.03;;;39.23;;
8488;SDS011;4281;45.772;12.852;2023-12-29T05:12:54;42.90;;;38.43;;
8488;SDS011;4281;45.772;12.852;2023-12-29T05:15:22;45.23;;;40.47;;
8488;SDS011;4281;45.772;12.852;2023-12-29T05:17:51;44.07;;;39.47;;
8488;SDS011;4281;45.772;12.852;2023-12-29T05:20:19;41.80;;;37.20;;
8488;SDS011;4281;45.772;12.852;2023-12-29T05:22:47;43.60;;;39.20;;
8488;SDS011;4281;45.772;12.852;2023-12-29T05:25:15;41.73;;;37.50;;
8488;SDS011;4281;45.772;12.852;2023-12-29T05:27:43;40.77;;;36.80;;
8488;SDS011;4281;45.772;12.852;2023-12-29T05:30:11;40.10;;;36.10;;
8488;SDS011;4281;45.772;12.852;2023-12-29T05:32:40;41.93;;;37.93;;
8488;SDS011;4281;45.772;12.852;2023-12-29T05:35:09;41.53;;;37.63;;
8488;SDS011;4281;45.772;12.852;2023-12-29T05:37:37;39.07;;;35.37;;
8488;SDS011;4281;45.772;12.852;2023-12-29T05:40:05;38.10;;;34.60;;
8488;SDS011;4281;45.772;12.852;2023-12-29T05:42:34;37.50;;;34.00;;
8488;SDS011;4281;45.772;12.852;2023-12-29T05:45:02;37.97;;;34.40;;
8488;SDS011;4281;45.772;12.852;2023-12-29T05:47:31;37.43;;;33.90;;
8488;SDS011;4281;45.772;12.852;2023-12-29T05:49:59;37.00;;;33.47;;
8488;SDS011;4281;45.772;12.852;2023-12-29T05:52:28;36.67;;;33.23;;
8488;SDS011;4281;45.772;12.852;2023-12-29T05:54:56;35.90;;;32.37;;
8488;SDS011;4281;45.772;12.852;2023-12-29T05:57:24;37.67;;;33.97;;
8488;SDS011;4281;45.772;12.852;2023-12-29T05:59:52;34.60;;;31.27;;
8488;SDS011;4281;45.772;12.852;2023-12-29T06:02:20;35.10;;;31.73;;
8488;SDS011;4281;45.772;12.852;2023-12-29T06:04:47;34.77;;;31.47;;
8488;SDS011;4281;45.772;12.852;2023-12-29T06:07:15;36.50;;;33.00;;
8488;SDS011;4281;45.772;12.852;2023-12-29T06:09:45;35.17;;;31.83;;
8488;SDS011;4281;45.772;12.852;2023-12-29T06:12:13;34.77;;;31.40;;
8488;SDS011;4281;45.772;12.852;2023-12-29T06:14:41;34.27;;;30.97;;
8488;SDS011;4281;45.772;12.852;2023-12-29T06:17:09;37.43;;;33.73;;
8488;SDS011;4281;45.772;12.852;2023-12-29T06:19:36;37.37;;;33.77;;
8488;SDS011;4281;45.772;12.852;2023-12-29T06:22:04;36.60;;;33.00;;
8488;SDS011;4281;45.772;12.852;2023-12-29T06:24:36;35.10;;;31.70;;
8488;SDS011;4281;45.772;12.852;2023-12-29T06:27:06;36.40;;;32.90;;
8488;SDS011;4281;45.772;12.852;2023-12-29T06:29:35;39.03;;;35.33;;
8488;SDS011;4281;45.772;12.852;2023-12-29T06:32:03;38.50;;;34.73;;
8488;SDS011;4281;45.772;12.852;2023-12-29T06:34:31;37.73;;;34.13;;
8488;SDS011;4281;45.772;12.852;2023-12-29T06:36:59;38.73;;;34.93;;
8488;SDS011;4281;45.772;12.852;2023-12-29T06:39:27;38.47;;;34.73;;
8488;SDS011;4281;45.772;12.852;2023-12-29T06:41:55;39.83;;;35.87;;
8488;SDS011;4281;45.772;12.852;2023-12-29T06:44:25;39.67;;;35.67;;
8488;SDS011;4281;45.772;12.852;2023-12-29T06:46:53;40.23;;;36.23;;
8488;SDS011;4281;45.772;12.852;2023-12-29T06:49:20;42.70;;;38.30;;
8488;SDS011;4281;45.772;12.852;2023-12-29T06:51:49;43.20;;;38.63;;
8488;SDS011;4281;45.772;12.852;2023-12-29T06:54:17;44.23;;;39.80;;
8488;SDS011;4281;45.772;12.852;2023-12-29T06:56:45;43.87;;;39.37;;
8488;SDS011;4281;45.772;12.852;2023-12-29T06:59:14;43.23;;;38.67;;
8488;SDS011;4281;45.772;12.852;2023-12-29T07:01:44;41.03;;;36.73;;
8488;SDS011;4281;45.772;12.852;2023-12-29T07:04:12;41.30;;;36.97;;
8488;SDS011;4281;45.772;12.852;2023-12-29T07:06:40;42.03;;;37.63;;
8488;SDS011;4281;45.772;12.852;2023-12-29T07:09:09;42.53;;;38.07;;
8488;SDS011;4281;45.772;12.852;2023-12-29T07:11:37;45.27;;;40.47;;
8488;SDS011;4281;45.772;12.852;2023-12-29T07:14:05;43.90;;;39.20;;
8488;SDS011;4281;45.772;12.852;2023-12-29T07:16:32;45.63;;;40.83;;
8488;SDS011;4281;45.772;12.852;2023-12-29T07:19:02;49.63;;;44.20;;
8488;SDS011;4281;45.772;12.852;2023-12-29T07:21:30;46.20;;;41.30;;
8488;SDS011;4281;45.772;12.852;2023-12-29T07:23:58;45.90;;;41.00;;
8488;SDS011;4281;45.772;12.852;2023-12-29T07:26:25;45.10;;;40.27;;
8488;SDS011;4281;45.772;12.852;2023-12-29T07:28:53;45.03;;;40.23;;
8488;SDS011;4281;45.772;12.852;2023-12-29T07:31:21;46.93;;;41.90;;
8488;SDS011;4281;45.772;12.852;2023-12-29T07:33:49;46.93;;;41.93;;
8488;SDS011;4281;45.772;12.852;2023-12-29T07:36:20;47.00;;;41.83;;
8488;SDS011;4281;45.772;12.852;2023-12-29T07:38:49;47.07;;;41.97;;
8488;SDS011;4281;45.772;12.852;2023-12-29T07:41:17;49.97;;;44.47;;
8488;SDS011;4281;45.772;12.852;2023-12-29T07:43:45;48.93;;;43.57;;
8488;SDS011;4281;45.772;12.852;2023-12-29T07:46:12;47.03;;;41.93;;
8488;SDS011;4281;45.772;12.852;2023-12-29T07:48:40;50.57;;;44.47;;
8488;SDS011;4281;45.772;12.852;2023-12-29T07:51:08;48.17;;;42.93;;
8488;SDS011;4281;45.772;12.852;2023-12-29T07:53:38;49.07;;;42.77;;
8488;SDS011;4281;45.772;12.852;2023-12-29T07:56:06;46.60;;;41.60;;
8488;SDS011;4281;45.772;12.852;2023-12-29T07:58:34;46.43;;;41.33;;
8488;SDS011;4281;45.772;12.852;2023-12-29T08:01:04;45.93;;;40.67;;
8488;SDS011;4281;45.772;12.852;2023-12-29T08:03:33;46.57;;;41.33;;
8488;SDS011;4281;45.772;12.852;2023-12-29T08:06:02;47.53;;;42.40;;
8488;SDS011;4281;45.772;12.852;2023-12-29T08:08:30;45.97;;;41.07;;
8488;SDS011;4281;45.772;12.852;2023-12-29T08:10:59;48.80;;;43.50;;
8488;SDS011;4281;45.772;12.852;2023-12-29T08:13:28;48.60;;;43.40;;
8488;SDS011;4281;45.772;12.852;2023-12-29T08:15:55;49.83;;;44.47;;
8488;SDS011;4281;45.772;12.852;2023-12-29T08:18:23;50.23;;;44.80;;
8488;SDS011;4281;45.772;12.852;2023-12-29T08:20:52;50.07;;;44.50;;
8488;SDS011;4281;45.772;12.852;2023-12-29T08:23:20;49.57;;;44.20;;
8488;SDS011;4281;45.772;12.852;2023-12-29T08:25:48;51.13;;;44.47;;
8488;SDS011;4281;45.772;12.852;2023-12-29T08:28:19;49.97;;;44.27;;
8488;SDS011;4281;45.772;12.852;2023-12-29T08:30:46;50.37;;;44.53;;
8488;SDS011;4281;45.772;12.852;2023-12-29T08:33:14;53.33;;;45.63;;
8488;SDS011;4281;45.772;12.852;2023-12-29T08:35:43;52.87;;;46.00;;
8488;SDS011;4281;45.772;12.852;2023-12-29T08:38:12;52.03;;;45.43;;
8488;SDS011;4281;45.772;12.852;2023-12-29T08:40:40;50.37;;;43.77;;
8488;SDS011;4281;45.772;12.852;2023-12-29T08:43:09;54.80;;;46.30;;
8488;SDS011;4281;45.772;12.852;2023-12-29T08:45:38;53.63;;;46.43;;
8488;SDS011;4281;45.772;12.852;2023-12-29T08:48:08;53.87;;;47.23;;
8488;SDS011;4281;45.772;12.852;2023-12-29T08:50:36;56.47;;;46.97;;
8488;SDS011;4281;45.772;12.852;2023-12-29T08:53:03;55.73;;;47.87;;
8488;SDS011;4281;45.772;12.852;2023-12-29T08:55:31;57.03;;;49.83;;
8488;SDS011;4281;45.772;12.852;2023-12-29T08:57:59;56.97;;;48.87;;
8488;SDS011;4281;45.772;12.852;2023-12-29T09:00:28;56.10;;;48.17;;
8488;SDS011;4281;45.772;12.852;2023-12-29T09:02:58;53.73;;;47.83;;
8488;SDS011;4281;45.772;12.852;2023-12-29T09:05:26;56.97;;;49.30;;
8488;SDS011;4281;45.772;12.852;2023-12-29T09:07:54;55.33;;;47.77;;
8488;SDS011;4281;45.772;12.852;2023-12-29T09:10:22;52.60;;;45.67;;
8488;SDS011;4281;45.772;12.852;2023-12-29T09:12:50;57.60;;;49.53;;
8488;SDS011;4281;45.772;12.852;2023-12-29T09:15:18;58.17;;;49.20;;
8488;SDS011;4281;45.772;12.852;2023-12-29T09:17:46;57.23;;;48.10;;
8488;SDS011;4281;45.772;12.852;2023-12-29T09:20:15;57.17;;;49.77;;
8488;SDS011;4281;45.772;12.852;2023-12-29T09:22:43;60.83;;;51.67;;
8488;SDS011;4281;45.772;12.852;2023-12-29T09:25:11;58.77;;;49.53;;
8488;SDS011;4281;45.772;12.852;2023-12-29T09:27:40;56.17;;;47.43;;
8488;SDS011;4281;45.772;12.852;2023-12-29T09:30:08;56.20;;;47.30;;
8488;SDS011;4281;45.772;12.852;2023-12-29T09:32:36;57.30;;;49.60;;
8488;SDS011;4281;45.772;12.852;2023-12-29T09:35:04;56.57;;;49.80;;
8488;SDS011;4281;45.772;12.852;2023-12-29T09:37:34;56.67;;;48.27;;
8488;SDS011;4281;45.772;12.852;2023-12-29T09:40:02;61.40;;;50.30;;
8488;SDS011;4281;45.772;12.852;2023-12-29T09:42:30;61.50;;;50.67;;
8488;SDS011;4281;45.772;12.852;2023-12-29T09:44:59;58.90;;;50.23;;
8488;SDS011;4281;45.772;12.852;2023-12-29T09:47:30;60.87;;;50.10;;
8488;SDS011;4281;45.772;12.852;2023-12-29T09:50:01;60.07;;;50.87;;
8488;SDS011;4281;45.772;12.852;2023-12-29T09:52:30;60.17;;;51.17;;
8488;SDS011;4281;45.772;12.852;2023-12-29T09:55:00;60.97;;;50.07;;
8488;SDS011;4281;45.772;12.852;2023-12-29T09:57:29;60.43;;;49.80;;
8488;SDS011;4281;45.772;12.852;2023-12-29T09:59:57;59.93;;;48.60;;
8488;SDS011;4281;45.772;12.852;2023-12-29T10:02:25;61.83;;;49.37;;
8488;SDS011;4281;45.772;12.852;2023-12-29T10:04:53;61.93;;;51.90;;
8488;SDS011;4281;45.772;12.852;2023-12-29T10:07:23;65.27;;;54.00;;
8488;SDS011;4281;45.772;12.852;2023-12-29T10:09:52;66.87;;;55.73;;
8488;SDS011;4281;45.772;12.852;2023-12-29T10:12:25;69.97;;;56.20;;
8488;SDS011;4281;45.772;12.852;2023-12-29T10:14:57;65.60;;;53.17;;
8488;SDS011;4281;45.772;12.852;2023-12-29T10:17:38;67.00;;;54.97;;
8488;SDS011;4281;45.772;12.852;2023-12-29T10:20:11;64.23;;;52.60;;
8488;SDS011;4281;45.772;12.852;2023-12-29T10:22:48;68.57;;;52.83;;
8488;SDS011;4281;45.772;12.852;2023-12-29T10:25:19;66.17;;;53.53;;
8488;SDS011;4281;45.772;12.852;2023-12-29T10:27:51;67.20;;;54.50;;
8488;SDS011;4281;45.772;12.852;2023-12-29T10:30:19;67.80;;;54.93;;
8488;SDS011;4281;45.772;12.852;2023-12-29T10:32:59;61.83;;;50.70;;
8488;SDS011;4281;45.772;12.852;2023-12-29T10:35:30;64.87;;;52.50;;
8488;SDS011;4281;45.772;12.852;2023-12-29T10:38:11;67.97;;;55.20;;
8488;SDS011;4281;45.772;12.852;2023-12-29T10:40:40;69.27;;;53.60;;
8488;SDS011;4281;45.772;12.852;2023-12-29T10:43:10;70.13;;;55.67;;
8488;SDS011;4281;45.772;12.852;2023-12-29T10:45:38;69.97;;;55.47;;
8488;SDS011;4281;45.772;12.852;2023-12-29T10:48:06;71.70;;;56.33;;
8488;SDS011;4281;45.772;12.852;2023-12-29T10:50:42;74.03;;;57.93;;
8488;SDS011;4281;45.772;12.852;2023-12-29T10:53:13;73.13;;;56.77;;
8488;SDS011;4281;45.772;12.852;2023-12-29T10:55:43;72.47;;;53.53;;
8488;SDS011;4281;45.772;12.852;2023-12-29T10:58:14;74.73;;;56.00;;
8488;SDS011;4281;45.772;12.852;2023-12-29T11:00:43;70.97;;;50.93;;
8488;SDS011;4281;45.772;12.852;2023-12-29T11:03:12;74.23;;;55.33;;
8488;SDS011;4281;45.772;12.852;2023-12-29T11:05:42;72.70;;;53.83;;
8488;SDS011;4281;45.772;12.852;2023-12-29T11:08:14;74.90;;;56.73;;
8488;SDS011;4281;45.772;12.852;2023-12-29T11:10:43;73.07;;;54.67;;
8488;SDS011;4281;45.772;12.852;2023-12-29T11:13:14;70.67;;;52.60;;
8488;SDS011;4281;45.772;12.852;2023-12-29T11:15:46;73.80;;;54.27;;
8488;SDS011;4281;45.772;12.852;2023-12-29T11:18:14;75.40;;;57.00;;
8488;SDS011;4281;45.772;12.852;2023-12-29T11:20:44;77.13;;;56.13;;
8488;SDS011;4281;45.772;12.852;2023-12-29T11:23:12;82.73;;;59.23;;
8488;SDS011;4281;45.772;12.852;2023-12-29T11:25:43;79.47;;;58.00;;
8488;SDS011;4281;45.772;12.852;2023-12-29T11:28:13;80.17;;;58.20;;
8488;SDS011;4281;45.772;12.852;2023-12-29T11:30:42;82.07;;;57.13;;
8488;SDS011;4281;45.772;12.852;2023-12-29T11:33:12;79.87;;;55.87;;
8488;SDS011;4281;45.772;12.852;2023-12-29T11:35:43;80.57;;;57.23;;
8488;SDS011;4281;45.772;12.852;2023-12-29T11:38:19;78.47;;;57.40;;
8488;SDS011;4281;45.772;12.852;2023-12-29T11:40:56;78.40;;;57.13;;
8488;SDS011;4281;45.772;12.852;2023-12-29T11:43:28;77.87;;;55.67;;
8488;SDS011;4281;45.772;12.852;2023-12-29T11:45:56;78.53;;;55.40;;
8488;SDS011;4281;45.772;12.852;2023-12-29T11:51:27;77.87;;;55.40;;
8488;SDS011;4281;45.772;12.852;2023-12-29T11:53:55;77.90;;;55.97;;
8488;SDS011;4281;45.772;12.852;2023-12-29T11:56:23;79.53;;;56.47;;
8488;SDS011;4281;45.772;12.852;2023-12-29T11:58:52;77.07;;;55.77;;
8488;SDS011;4281;45.772;12.852;2023-12-29T12:01:33;75.90;;;57.33;;
8488;SDS011;4281;45.772;12.852;2023-12-29T12:04:02;76.83;;;56.87;;
8488;SDS011;4281;45.772;12.852;2023-12-29T12:06:36;78.67;;;55.67;;
8488;SDS011;4281;45.772;12.852;2023-12-29T12:11:54;72.60;;;53.10;;
8488;SDS011;4281;45.772;12.852;2023-12-29T12:17:31;79.03;;;57.57;;
8488;SDS011;4281;45.772;12.852;2023-12-29T12:20:02;76.13;;;54.07;;
8488;SDS011;4281;45.772;12.852;2023-12-29T12:22:31;78.90;;;55.63;;
8488;SDS011;4281;45.772;12.852;2023-12-29T12:25:05;77.33;;;53.53;;
8488;SDS011;4281;45.772;12.852;2023-12-29T12:27:36;75.73;;;54.50;;
8488;SDS011;4281;45.772;12.852;2023-12-29T12:30:07;75.90;;;55.77;;
8488;SDS011;4281;45.772;12.852;2023-12-29T12:32:37;77.37;;;55.43;;
8488;SDS011;4281;45.772;12.852;2023-12-29T12:35:12;75.67;;;53.77;;
8488;SDS011;4281;45.772;12.852;2023-12-29T12:37:45;73.93;;;53.07;;
8488;SDS011;4281;45.772;12.852;2023-12-29T12:40:23;73.20;;;53.87;;
8488;SDS011;4281;45.772;12.852;2023-12-29T12:42:52;77.90;;;55.63;;
8488;SDS011;4281;45.772;12.852;2023-12-29T12:45:21;69.43;;;52.63;;
8488;SDS011;4281;45.772;12.852;2023-12-29T12:47:50;72.87;;;53.40;;
8488;SDS011;4281;45.772;12.852;2023-12-29T12:50:19;72.93;;;54.70;;
8488;SDS011;4281;45.772;12.852;2023-12-29T12:52:47;78.30;;;57.80;;
8488;SDS011;4281;45.772;12.852;2023-12-29T12:55:16;75.23;;;55.93;;
8488;SDS011;4281;45.772;12.852;2023-12-29T12:57:44;77.37;;;57.03;;
8488;SDS011;4281;45.772;12.852;2023-12-29T13:00:13;74.90;;;54.53;;
8488;SDS011;4281;45.772;12.852;2023-12-29T13:02:45;76.20;;;55.83;;
8488;SDS011;4281;45.772;12.852;2023-12-29T13:05:14;73.27;;;54.37;;
8488;SDS011;4281;45.772;12.852;2023-12-29T13:07:44;68.57;;;50.63;;
8488;SDS011;4281;45.772;12.852;2023-12-29T13:10:12;73.43;;;54.00;;
8488;SDS011;4281;45.772;12.852;2023-12-29T13:12:40;73.57;;;53.37;;
8488;SDS011;4281;45.772;12.852;2023-12-29T13:15:10;73.33;;;53.13;;
8488;SDS011;4281;45.772;12.852;2023-12-29T13:17:38;71.40;;;53.20;;
8488;SDS011;4281;45.772;12.852;2023-12-29T13:20:08;67.83;;;51.20;;
8488;SDS011;4281;45.772;12.852;2023-12-29T13:22:36;70.00;;;53.17;;
8488;SDS011;4281;45.772;12.852;2023-12-29T13:25:04;71.57;;;53.40;;
8488;SDS011;4281;45.772;12.852;2023-12-29T13:27:33;71.67;;;52.57;;
8488;SDS011;4281;45.772;12.852;2023-12-29T13:30:05;70.60;;;52.13;;
8488;SDS011;4281;45.772;12.852;2023-12-29T13:32:34;70.07;;;53.00;;
8488;SDS011;4281;45.772;12.852;2023-12-29T13:35:06;70.30;;;53.20;;
8488;SDS011;4281;45.772;12.852;2023-12-29T13:37:42;68.37;;;52.67;;
8488;SDS011;4281;45.772;12.852;2023-12-29T13:40:14;64.50;;;49.17;;
8488;SDS011;4281;45.772;12.852;2023-12-29T13:42:45;64.03;;;49.23;;
8488;SDS011;4281;45.772;12.852;2023-12-29T13:45:14;67.07;;;51.47;;
8488;SDS011;4281;45.772;12.852;2023-12-29T13:47:43;64.07;;;49.70;;
8488;SDS011;4281;45.772;12.852;2023-12-29T13:50:12;66.73;;;50.57;;
8488;SDS011;4281;45.772;12.852;2023-12-29T13:52:40;68.57;;;51.03;;
8488;SDS011;4281;45.772;12.852;2023-12-29T13:55:08;68.13;;;51.90;;
8488;SDS011;4281;45.772;12.852;2023-12-29T13:57:36;68.77;;;51.97;;
8488;SDS011;4281;45.772;12.852;2023-12-29T14:00:17;69.33;;;51.27;;
8488;SDS011;4281;45.772;12.852;2023-12-29T14:02:48;70.80;;;52.43;;
8488;SDS011;4281;45.772;12.852;2023-12-29T14:05:27;67.90;;;51.63;;
8488;SDS011;4281;45.772;12.852;2023-12-29T14:07:59;73.17;;;53.93;;
8488;SDS011;4281;45.772;12.852;2023-12-29T14:10:30;69.30;;;52.60;;
8488;SDS011;4281;45.772;12.852;2023-12-29T14:13:04;71.80;;;53.77;;
8488;SDS011;4281;45.772;12.852;2023-12-29T14:15:36;70.40;;;52.27;;
8488;SDS011;4281;45.772;12.852;2023-12-29T14:18:05;70.43;;;53.30;;
8488;SDS011;4281;45.772;12.852;2023-12-29T14:20:43;71.57;;;54.73;;
8488;SDS011;4281;45.772;12.852;2023-12-29T14:23:11;73.90;;;54.87;;
8488;SDS011;4281;45.772;12.852;2023-12-29T14:25:39;72.00;;;55.03;;
8488;SDS011;4281;45.772;12.852;2023-12-29T14:28:14;67.93;;;52.20;;
8488;SDS011;4281;45.772;12.852;2023-12-29T14:30:43;68.37;;;54.57;;
8488;SDS011;4281;45.772;12.852;2023-12-29T14:33:12;72.30;;;54.60;;
8488;SDS011;4281;45.772;12.852;2023-12-29T14:35:40;69.07;;;53.63;;
8488;SDS011;4281;45.772;12.852;2023-12-29T14:38:09;69.17;;;52.83;;
8488;SDS011;4281;45.772;12.852;2023-12-29T14:40:44;70.47;;;53.50;;
8488;SDS011;4281;45.772;12.852;2023-12-29T14:43:12;68.10;;;52.03;;
8488;SDS011;4281;45.772;12.852;2023-12-29T14:45:40;68.40;;;54.27;;
8488;SDS011;4281;45.772;12.852;2023-12-29T14:48:08;68.13;;;54.73;;
8488;SDS011;4281;45.772;12.852;2023-12-29T14:50:37;68.77;;;52.93;;
8488;SDS011;4281;45.772;12.852;2023-12-29T14:53:05;69.03;;;53.27;;
8488;SDS011;4281;45.772;12.852;2023-12-29T14:55:34;70.57;;;54.40;;